sensor_id;sensor_type;location;lat;lon;timestamp;P1;durP1;ratioP1;P2;durP2;ratioP2
71080;SDS011;58740;50.672;18.690;2024-03-06T00:00:37;49.70;;;24.30;;
71080;SDS011;58740;50.672;18.690;2024-03-06T00:03:30;46.90;;;24.10;;
71080;SDS011;58740;50.672;18.690;2024-03-06T00:06:04;51.60;;;26.30;;
71080;SDS011;58740;50.672;18.690;2024-03-06T00:08:37;58.40;;;27.10;;
71080;SDS011;58740;50.672;18.690;2024-03-06T00:11:11;62.60;;;29.90;;
71080;SDS011;58740;50.672;18.690;2024-03-06T00:13:44;59.20;;;26.90;;
71080;SDS011;58740;50.672;18.690;2024-03-06T00:16:18;54.10;;;28.20;;
71080;SDS011;58740;50.672;18.690;2024-03-06T00:18:51;52.50;;;28.40;;
71080;SDS011;58740;50.672;18.690;2024-03-06T00:21:24;64.30;;;30.60;;
71080;SDS011;58740;50.672;18.690;2024-03-06T00:23:59;57.50;;;30.10;;
71080;SDS011;58740;50.672;18.690;2024-03-06T00:26:32;38.50;;;21.60;;
71080;SDS011;58740;50.672;18.690;2024-03-06T00:29:05;40.20;;;20.70;;
71080;SDS011;58740;50.672;18.690;2024-03-06T00:31:43;36.80;;;21.20;;
71080;SDS011;58740;50.672;18.690;2024-03-06T00:34:17;37.90;;;19.50;;
71080;SDS011;58740;50.672;18.690;2024-03-06T00:36:50;39.70;;;20.90;;
71080;SDS011;58740;50.672;18.690;2024-03-06T00:39:24;40.80;;;21.60;;
71080;SDS011;58740;50.672;18.690;2024-03-06T00:41:58;38.90;;;19.80;;
71080;SDS011;58740;50.672;18.690;2024-03-06T00:44:31;35.40;;;20.10;;
71080;SDS011;58740;50.672;18.690;2024-03-06T00:47:04;44.30;;;22.30;;
71080;SDS011;58740;50.672;18.690;2024-03-06T00:49:38;42.00;;;21.10;;
71080;SDS011;58740;50.672;18.690;2024-03-06T00:52:12;38.30;;;18.80;;
71080;SDS011;58740;50.672;18.690;2024-03-06T00:54:46;42.90;;;22.00;;
71080;SDS011;58740;50.672;18.690;2024-03-06T00:57:19;35.50;;;20.40;;
71080;SDS011;58740;50.672;18.690;2024-03-06T00:59:53;39.30;;;21.00;;
71080;SDS011;58740;50.672;18.690;2024-03-06T01:02:26;39.40;;;20.80;;
71080;SDS011;58740;50.672;18.690;2024-03-06T01:05:00;54.20;;;25.80;;
71080;SDS011;58740;50.672;18.690;2024-03-06T01:07:35;41.00;;;22.10;;
71080;SDS011;58740;50.672;18.690;2024-03-06T01:10:11;40.00;;;20.70;;
71080;SDS011;58740;50.672;18.690;2024-03-06T01:12:44;34.00;;;18.20;;
71080;SDS011;58740;50.672;18.690;2024-03-06T01:15:18;34.30;;;18.20;;
71080;SDS011;58740;50.672;18.690;2024-03-06T01:17:51;37.40;;;16.90;;
71080;SDS011;58740;50.672;18.690;2024-03-06T01:20:24;31.30;;;17.50;;
71080;SDS011;58740;50.672;18.690;2024-03-06T01:22:58;31.10;;;16.00;;
71080;SDS011;58740;50.672;18.690;2024-03-06T01:25:31;32.90;;;15.80;;
71080;SDS011;58740;50.672;18.690;2024-03-06T01:28:05;34.40;;;16.20;;
71080;SDS011;58740;50.672;18.690;2024-03-06T01:30:38;34.10;;;18.10;;
71080;SDS011;58740;50.672;18.690;2024-03-06T01:33:12;34.80;;;16.40;;
71080;SDS011;58740;50.672;18.690;2024-03-06T01:35:45;39.90;;;22.40;;
71080;SDS011;58740;50.672;18.690;2024-03-06T01:38:18;37.30;;;18.90;;
71080;SDS011;58740;50.672;18.690;2024-03-06T01:40:52;43.90;;;24.40;;
71080;SDS011;58740;50.672;18.690;2024-03-06T01:43:26;48.40;;;24.10;;
71080;SDS011;58740;50.672;18.690;2024-03-06T01:46:02;44.30;;;24.80;;
71080;SDS011;58740;50.672;18.690;2024-03-06T01:48:36;41.20;;;22.40;;
71080;SDS011;58740;50.672;18.690;2024-03-06T01:51:10;44.20;;;21.80;;
71080;SDS011;58740;50.672;18.690;2024-03-06T01:53:43;35.70;;;19.50;;
71080;SDS011;58740;50.672;18.690;2024-03-06T01:56:17;45.20;;;22.00;;
71080;SDS011;58740;50.672;18.690;2024-03-06T01:58:51;42.70;;;21.10;;
71080;SDS011;58740;50.672;18.690;2024-03-06T02:01:27;39.00;;;20.50;;
71080;SDS011;58740;50.672;18.690;2024-03-06T02:04:01;45.20;;;22.90;;
71080;SDS011;58740;50.672;18.690;2024-03-06T02:06:37;42.40;;;20.40;;
71080;SDS011;58740;50.672;18.690;2024-03-06T02:09:12;47.70;;;22.80;;
71080;SDS011;58740;50.672;18.690;2024-03-06T02:11:45;48.90;;;25.50;;
71080;SDS011;58740;50.672;18.690;2024-03-06T02:14:20;47.00;;;22.00;;
71080;SDS011;58740;50.672;18.690;2024-03-06T02:16:54;50.00;;;24.30;;
71080;SDS011;58740;50.672;18.690;2024-03-06T02:19:38;50.50;;;24.40;;
71080;SDS011;58740;50.672;18.690;2024-03-06T02:22:13;44.90;;;21.10;;
71080;SDS011;58740;50.672;18.690;2024-03-06T02:24:49;37.10;;;17.30;;
71080;SDS011;58740;50.672;18.690;2024-03-06T02:27:22;34.30;;;19.00;;
71080;SDS011;58740;50.672;18.690;2024-03-06T02:29:55;35.30;;;16.70;;
71080;SDS011;58740;50.672;18.690;2024-03-06T02:32:29;26.30;;;12.50;;
71080;SDS011;58740;50.672;18.690;2024-03-06T02:35:03;31.80;;;15.60;;
71080;SDS011;58740;50.672;18.690;2024-03-06T02:37:40;27.10;;;13.40;;
71080;SDS011;58740;50.672;18.690;2024-03-06T02:40:15;19.90;;;10.70;;
71080;SDS011;58740;50.672;18.690;2024-03-06T02:42:48;25.40;;;13.30;;
71080;SDS011;58740;50.672;18.690;2024-03-06T02:45:22;29.70;;;14.70;;
71080;SDS011;58740;50.672;18.690;2024-03-06T02:47:55;29.80;;;16.50;;
71080;SDS011;58740;50.672;18.690;2024-03-06T02:50:28;30.50;;;15.00;;
71080;SDS011;58740;50.672;18.690;2024-03-06T02:53:01;31.30;;;16.00;;
71080;SDS011;58740;50.672;18.690;2024-03-06T02:55:35;26.00;;;14.70;;
71080;SDS011;58740;50.672;18.690;2024-03-06T02:58:08;31.50;;;15.40;;
71080;SDS011;58740;50.672;18.690;2024-03-06T03:00:42;34.20;;;17.10;;
71080;SDS011;58740;50.672;18.690;2024-03-06T03:03:16;23.50;;;11.40;;
71080;SDS011;58740;50.672;18.690;2024-03-06T03:05:50;26.10;;;13.20;;
71080;SDS011;58740;50.672;18.690;2024-03-06T03:08:23;33.50;;;16.90;;
71080;SDS011;58740;50.672;18.690;2024-03-06T03:10:57;30.30;;;14.40;;
71080;SDS011;58740;50.672;18.690;2024-03-06T03:13:30;31.70;;;15.70;;
71080;SDS011;58740;50.672;18.690;2024-03-06T03:16:04;29.20;;;14.70;;
71080;SDS011;58740;50.672;18.690;2024-03-06T03:18:38;30.40;;;15.60;;
71080;SDS011;58740;50.672;18.690;2024-03-06T03:21:11;30.20;;;16.70;;
71080;SDS011;58740;50.672;18.690;2024-03-06T03:23:44;34.80;;;18.00;;
71080;SDS011;58740;50.672;18.690;2024-03-06T03:26:17;29.40;;;15.80;;
71080;SDS011;58740;50.672;18.690;2024-03-06T03:28:51;24.00;;;12.60;;
71080;SDS011;58740;50.672;18.690;2024-03-06T03:31:26;26.40;;;14.30;;
71080;SDS011;58740;50.672;18.690;2024-03-06T03:33:59;30.70;;;15.60;;
71080;SDS011;58740;50.672;18.690;2024-03-06T03:36:32;32.70;;;16.80;;
71080;SDS011;58740;50.672;18.690;2024-03-06T03:39:07;32.40;;;16.70;;
71080;SDS011;58740;50.672;18.690;2024-03-06T03:41:47;33.40;;;17.50;;
71080;SDS011;58740;50.672;18.690;2024-03-06T03:44:20;39.20;;;19.40;;
71080;SDS011;58740;50.672;18.690;2024-03-06T03:46:54;33.40;;;17.40;;
71080;SDS011;58740;50.672;18.690;2024-03-06T03:49:27;31.10;;;15.20;;
71080;SDS011;58740;50.672;18.690;2024-03-06T03:52:00;28.90;;;13.80;;
71080;SDS011;58740;50.672;18.690;2024-03-06T03:54:34;31.40;;;14.90;;
71080;SDS011;58740;50.672;18.690;2024-03-06T03:57:08;20.00;;;9.90;;
71080;SDS011;58740;50.672;18.690;2024-03-06T03:59:41;28.00;;;13.20;;
71080;SDS011;58740;50.672;18.690;2024-03-06T04:02:15;28.10;;;13.80;;
71080;SDS011;58740;50.672;18.690;2024-03-06T04:04:48;26.90;;;14.20;;
71080;SDS011;58740;50.672;18.690;2024-03-06T04:07:22;27.00;;;16.00;;
71080;SDS011;58740;50.672;18.690;2024-03-06T04:09:55;29.50;;;14.50;;
71080;SDS011;58740;50.672;18.690;2024-03-06T04:12:29;28.10;;;13.40;;
71080;SDS011;58740;50.672;18.690;2024-03-06T04:15:02;31.30;;;14.70;;
71080;SDS011;58740;50.672;18.690;2024-03-06T04:17:37;35.40;;;17.60;;
71080;SDS011;58740;50.672;18.690;2024-03-06T04:20:12;33.70;;;16.20;;
71080;SDS011;58740;50.672;18.690;2024-03-06T04:22:46;17.60;;;10.80;;
71080;SDS011;58740;50.672;18.690;2024-03-06T04:25:21;17.80;;;10.10;;
71080;SDS011;58740;50.672;18.690;2024-03-06T04:27:55;30.20;;;15.10;;
71080;SDS011;58740;50.672;18.690;2024-03-06T04:30:28;26.30;;;13.10;;
71080;SDS011;58740;50.672;18.690;2024-03-06T04:33:01;19.60;;;10.80;;
71080;SDS011;58740;50.672;18.690;2024-03-06T04:35:35;27.10;;;14.30;;
71080;SDS011;58740;50.672;18.690;2024-03-06T04:38:08;27.50;;;14.90;;
71080;SDS011;58740;50.672;18.690;2024-03-06T04:40:42;27.00;;;14.00;;
71080;SDS011;58740;50.672;18.690;2024-03-06T04:43:15;21.50;;;11.00;;
71080;SDS011;58740;50.672;18.690;2024-03-06T04:45:49;27.80;;;13.70;;
71080;SDS011;58740;50.672;18.690;2024-03-06T04:48:22;26.30;;;14.10;;
71080;SDS011;58740;50.672;18.690;2024-03-06T04:50:56;33.80;;;16.80;;
71080;SDS011;58740;50.672;18.690;2024-03-06T04:53:29;21.60;;;10.90;;
71080;SDS011;58740;50.672;18.690;2024-03-06T04:56:03;27.10;;;14.50;;
71080;SDS011;58740;50.672;18.690;2024-03-06T04:58:38;24.60;;;13.40;;
71080;SDS011;58740;50.672;18.690;2024-03-06T05:01:12;23.50;;;11.30;;
71080;SDS011;58740;50.672;18.690;2024-03-06T05:03:46;22.40;;;12.20;;
71080;SDS011;58740;50.672;18.690;2024-03-06T05:06:38;32.40;;;14.90;;
71080;SDS011;58740;50.672;18.690;2024-03-06T05:09:29;23.60;;;11.90;;
71080;SDS011;58740;50.672;18.690;2024-03-06T05:12:20;26.10;;;12.90;;
71080;SDS011;58740;50.672;18.690;2024-03-06T05:15:12;26.60;;;12.50;;
71080;SDS011;58740;50.672;18.690;2024-03-06T05:18:03;27.40;;;12.30;;
71080;SDS011;58740;50.672;18.690;2024-03-06T05:20:56;21.00;;;10.70;;
71080;SDS011;58740;50.672;18.690;2024-03-06T05:23:47;18.20;;;9.10;;
71080;SDS011;58740;50.672;18.690;2024-03-06T05:26:38;19.70;;;10.00;;
71080;SDS011;58740;50.672;18.690;2024-03-06T05:29:28;25.70;;;12.30;;
71080;SDS011;58740;50.672;18.690;2024-03-06T05:32:19;32.70;;;13.80;;
71080;SDS011;58740;50.672;18.690;2024-03-06T05:35:10;27.20;;;12.60;;
71080;SDS011;58740;50.672;18.690;2024-03-06T05:38:01;31.30;;;14.60;;
71080;SDS011;58740;50.672;18.690;2024-03-06T05:40:52;30.80;;;14.00;;
71080;SDS011;58740;50.672;18.690;2024-03-06T05:43:42;32.40;;;15.30;;
71080;SDS011;58740;50.672;18.690;2024-03-06T05:46:34;28.40;;;13.00;;
71080;SDS011;58740;50.672;18.690;2024-03-06T05:49:25;24.60;;;10.60;;
71080;SDS011;58740;50.672;18.690;2024-03-06T05:52:16;25.40;;;11.30;;
71080;SDS011;58740;50.672;18.690;2024-03-06T05:55:08;30.00;;;14.50;;
71080;SDS011;58740;50.672;18.690;2024-03-06T05:57:59;25.00;;;13.60;;
71080;SDS011;58740;50.672;18.690;2024-03-06T06:00:39;28.00;;;14.10;;
71080;SDS011;58740;50.672;18.690;2024-03-06T06:03:13;30.60;;;17.30;;
71080;SDS011;58740;50.672;18.690;2024-03-06T06:05:48;47.10;;;21.70;;
71080;SDS011;58740;50.672;18.690;2024-03-06T06:08:21;25.90;;;12.60;;
71080;SDS011;58740;50.672;18.690;2024-03-06T06:10:55;27.20;;;12.70;;
71080;SDS011;58740;50.672;18.690;2024-03-06T06:13:28;20.60;;;9.70;;
71080;SDS011;58740;50.672;18.690;2024-03-06T06:16:02;22.00;;;11.20;;
71080;SDS011;58740;50.672;18.690;2024-03-06T06:18:36;22.30;;;11.30;;
71080;SDS011;58740;50.672;18.690;2024-03-06T06:21:12;26.30;;;13.30;;
71080;SDS011;58740;50.672;18.690;2024-03-06T06:23:46;29.10;;;14.40;;
71080;SDS011;58740;50.672;18.690;2024-03-06T06:26:20;34.90;;;17.00;;
71080;SDS011;58740;50.672;18.690;2024-03-06T06:28:53;26.50;;;12.40;;
71080;SDS011;58740;50.672;18.690;2024-03-06T06:31:27;19.00;;;9.10;;
71080;SDS011;58740;50.672;18.690;2024-03-06T06:34:00;22.00;;;9.00;;
71080;SDS011;58740;50.672;18.690;2024-03-06T06:36:33;25.40;;;12.00;;
71080;SDS011;58740;50.672;18.690;2024-03-06T06:39:08;22.30;;;11.10;;
71080;SDS011;58740;50.672;18.690;2024-03-06T06:41:42;22.60;;;12.30;;
71080;SDS011;58740;50.672;18.690;2024-03-06T06:44:16;27.60;;;13.10;;
71080;SDS011;58740;50.672;18.690;2024-03-06T06:46:49;23.10;;;11.60;;
71080;SDS011;58740;50.672;18.690;2024-03-06T06:49:22;29.20;;;13.90;;
71080;SDS011;58740;50.672;18.690;2024-03-06T06:51:56;24.90;;;11.70;;
71080;SDS011;58740;50.672;18.690;2024-03-06T06:54:30;30.70;;;15.90;;
71080;SDS011;58740;50.672;18.690;2024-03-06T06:57:03;32.80;;;17.10;;
71080;SDS011;58740;50.672;18.690;2024-03-06T06:59:36;28.20;;;14.30;;
71080;SDS011;58740;50.672;18.690;2024-03-06T07:02:10;30.80;;;14.70;;
71080;SDS011;58740;50.672;18.690;2024-03-06T07:04:43;30.40;;;15.80;;
71080;SDS011;58740;50.672;18.690;2024-03-06T07:07:16;30.70;;;15.90;;
71080;SDS011;58740;50.672;18.690;2024-03-06T07:09:50;42.00;;;20.40;;
71080;SDS011;58740;50.672;18.690;2024-03-06T07:12:24;35.60;;;18.10;;
71080;SDS011;58740;50.672;18.690;2024-03-06T07:14:57;31.80;;;15.40;;
71080;SDS011;58740;50.672;18.690;2024-03-06T07:17:30;28.70;;;13.90;;
71080;SDS011;58740;50.672;18.690;2024-03-06T07:20:05;27.10;;;13.10;;
71080;SDS011;58740;50.672;18.690;2024-03-06T07:22:40;26.50;;;12.40;;
71080;SDS011;58740;50.672;18.690;2024-03-06T07:25:14;30.10;;;14.20;;
71080;SDS011;58740;50.672;18.690;2024-03-06T07:27:47;24.00;;;12.60;;
71080;SDS011;58740;50.672;18.690;2024-03-06T07:30:20;29.30;;;14.70;;
71080;SDS011;58740;50.672;18.690;2024-03-06T07:32:54;33.30;;;15.40;;
71080;SDS011;58740;50.672;18.690;2024-03-06T07:35:28;24.60;;;12.40;;
71080;SDS011;58740;50.672;18.690;2024-03-06T07:38:01;23.50;;;10.60;;
71080;SDS011;58740;50.672;18.690;2024-03-06T07:40:35;30.60;;;14.80;;
71080;SDS011;58740;50.672;18.690;2024-03-06T07:43:08;27.10;;;12.40;;
71080;SDS011;58740;50.672;18.690;2024-03-06T07:45:42;38.40;;;17.20;;
71080;SDS011;58740;50.672;18.690;2024-03-06T07:48:15;28.80;;;14.90;;
71080;SDS011;58740;50.672;18.690;2024-03-06T07:50:49;30.40;;;13.70;;
71080;SDS011;58740;50.672;18.690;2024-03-06T07:53:22;26.40;;;13.00;;
71080;SDS011;58740;50.672;18.690;2024-03-06T07:55:55;31.70;;;13.60;;
71080;SDS011;58740;50.672;18.690;2024-03-06T07:58:27;32.20;;;15.40;;
71080;SDS011;58740;50.672;18.690;2024-03-06T08:01:00;30.40;;;15.10;;
71080;SDS011;58740;50.672;18.690;2024-03-06T08:03:33;25.00;;;12.40;;
71080;SDS011;58740;50.672;18.690;2024-03-06T08:06:07;23.70;;;12.30;;
71080;SDS011;58740;50.672;18.690;2024-03-06T08:08:41;22.20;;;12.00;;
71080;SDS011;58740;50.672;18.690;2024-03-06T08:11:14;32.90;;;14.70;;
71080;SDS011;58740;50.672;18.690;2024-03-06T08:13:48;27.60;;;14.70;;
71080;SDS011;58740;50.672;18.690;2024-03-06T08:16:20;18.90;;;8.60;;
71080;SDS011;58740;50.672;18.690;2024-03-06T08:18:53;25.60;;;12.60;;
71080;SDS011;58740;50.672;18.690;2024-03-06T08:21:26;24.80;;;11.90;;
71080;SDS011;58740;50.672;18.690;2024-03-06T08:23:58;25.70;;;13.80;;
71080;SDS011;58740;50.672;18.690;2024-03-06T08:26:30;34.40;;;14.50;;
71080;SDS011;58740;50.672;18.690;2024-03-06T08:29:03;23.10;;;11.70;;
71080;SDS011;58740;50.672;18.690;2024-03-06T08:31:36;33.80;;;16.30;;
71080;SDS011;58740;50.672;18.690;2024-03-06T08:34:08;25.10;;;12.50;;
71080;SDS011;58740;50.672;18.690;2024-03-06T08:36:41;26.20;;;14.00;;
71080;SDS011;58740;50.672;18.690;2024-03-06T08:39:13;27.20;;;13.00;;
71080;SDS011;58740;50.672;18.690;2024-03-06T08:41:46;32.60;;;17.00;;
71080;SDS011;58740;50.672;18.690;2024-03-06T08:44:18;31.10;;;15.80;;
71080;SDS011;58740;50.672;18.690;2024-03-06T08:46:51;39.60;;;16.00;;
71080;SDS011;58740;50.672;18.690;2024-03-06T08:49:23;27.00;;;12.90;;
71080;SDS011;58740;50.672;18.690;2024-03-06T08:51:55;25.50;;;11.90;;
71080;SDS011;58740;50.672;18.690;2024-03-06T08:54:27;39.10;;;18.00;;
71080;SDS011;58740;50.672;18.690;2024-03-06T08:57:00;24.00;;;13.20;;
71080;SDS011;58740;50.672;18.690;2024-03-06T08:59:32;45.00;;;20.40;;
71080;SDS011;58740;50.672;18.690;2024-03-06T09:02:15;27.70;;;14.40;;
71080;SDS011;58740;50.672;18.690;2024-03-06T09:04:49;32.40;;;16.50;;
71080;SDS011;58740;50.672;18.690;2024-03-06T09:07:22;28.70;;;15.80;;
71080;SDS011;58740;50.672;18.690;2024-03-06T09:09:55;22.80;;;11.00;;
71080;SDS011;58740;50.672;18.690;2024-03-06T09:12:27;25.20;;;12.10;;
71080;SDS011;58740;50.672;18.690;2024-03-06T09:15:00;30.50;;;15.10;;
71080;SDS011;58740;50.672;18.690;2024-03-06T09:17:33;30.90;;;13.60;;
71080;SDS011;58740;50.672;18.690;2024-03-06T09:20:07;28.20;;;13.80;;
71080;SDS011;58740;50.672;18.690;2024-03-06T09:22:43;28.00;;;13.60;;
71080;SDS011;58740;50.672;18.690;2024-03-06T09:25:16;24.50;;;13.80;;
71080;SDS011;58740;50.672;18.690;2024-03-06T09:27:49;29.50;;;14.70;;
71080;SDS011;58740;50.672;18.690;2024-03-06T09:30:21;26.90;;;15.10;;
71080;SDS011;58740;50.672;18.690;2024-03-06T09:32:53;29.90;;;15.50;;
71080;SDS011;58740;50.672;18.690;2024-03-06T09:35:26;25.00;;;13.50;;
71080;SDS011;58740;50.672;18.690;2024-03-06T09:37:59;27.90;;;12.40;;
71080;SDS011;58740;50.672;18.690;2024-03-06T09:40:31;27.80;;;13.40;;
71080;SDS011;58740;50.672;18.690;2024-03-06T09:43:04;28.90;;;15.10;;
71080;SDS011;58740;50.672;18.690;2024-03-06T09:45:37;29.20;;;14.20;;
71080;SDS011;58740;50.672;18.690;2024-03-06T09:48:10;28.10;;;14.20;;
71080;SDS011;58740;50.672;18.690;2024-03-06T09:50:44;23.90;;;10.80;;
71080;SDS011;58740;50.672;18.690;2024-03-06T09:53:17;34.00;;;16.30;;
71080;SDS011;58740;50.672;18.690;2024-03-06T09:55:52;24.10;;;12.30;;
71080;SDS011;58740;50.672;18.690;2024-03-06T09:58:27;30.20;;;16.30;;
71080;SDS011;58740;50.672;18.690;2024-03-06T10:00:59;29.20;;;15.00;;
71080;SDS011;58740;50.672;18.690;2024-03-06T10:03:37;29.30;;;14.60;;
71080;SDS011;58740;50.672;18.690;2024-03-06T10:06:10;29.60;;;15.50;;
71080;SDS011;58740;50.672;18.690;2024-03-06T10:08:44;30.30;;;15.20;;
71080;SDS011;58740;50.672;18.690;2024-03-06T10:11:19;31.70;;;15.90;;
71080;SDS011;58740;50.672;18.690;2024-03-06T10:13:53;28.60;;;15.90;;
71080;SDS011;58740;50.672;18.690;2024-03-06T10:16:26;32.80;;;15.80;;
71080;SDS011;58740;50.672;18.690;2024-03-06T10:18:58;25.50;;;13.50;;
71080;SDS011;58740;50.672;18.690;2024-03-06T10:21:49;31.00;;;15.60;;
71080;SDS011;58740;50.672;18.690;2024-03-06T10:24:23;32.80;;;16.70;;
71080;SDS011;58740;50.672;18.690;2024-03-06T10:26:57;32.20;;;16.50;;
71080;SDS011;58740;50.672;18.690;2024-03-06T10:29:30;31.40;;;15.10;;
71080;SDS011;58740;50.672;18.690;2024-03-06T10:32:05;35.40;;;17.70;;
71080;SDS011;58740;50.672;18.690;2024-03-06T10:34:38;35.90;;;16.60;;
71080;SDS011;58740;50.672;18.690;2024-03-06T10:37:11;24.10;;;11.60;;
71080;SDS011;58740;50.672;18.690;2024-03-06T10:39:44;42.20;;;21.50;;
71080;SDS011;58740;50.672;18.690;2024-03-06T10:42:22;35.20;;;18.00;;
71080;SDS011;58740;50.672;18.690;2024-03-06T10:45:00;24.00;;;10.90;;
71080;SDS011;58740;50.672;18.690;2024-03-06T10:47:36;39.40;;;17.80;;
71080;SDS011;58740;50.672;18.690;2024-03-06T10:50:12;32.00;;;16.40;;
71080;SDS011;58740;50.672;18.690;2024-03-06T10:52:47;32.10;;;16.50;;
71080;SDS011;58740;50.672;18.690;2024-03-06T10:55:25;29.20;;;13.90;;
71080;SDS011;58740;50.672;18.690;2024-03-06T10:58:06;35.60;;;18.80;;
71080;SDS011;58740;50.672;18.690;2024-03-06T11:00:40;22.10;;;10.90;;
71080;SDS011;58740;50.672;18.690;2024-03-06T11:03:16;24.20;;;13.00;;
71080;SDS011;58740;50.672;18.690;2024-03-06T11:05:48;28.20;;;14.40;;
71080;SDS011;58740;50.672;18.690;2024-03-06T11:08:22;28.20;;;14.70;;
71080;SDS011;58740;50.672;18.690;2024-03-06T11:10:55;25.70;;;12.90;;
71080;SDS011;58740;50.672;18.690;2024-03-06T11:13:57;34.70;;;16.60;;
71080;SDS011;58740;50.672;18.690;2024-03-06T11:16:57;37.50;;;18.50;;
71080;SDS011;58740;50.672;18.690;2024-03-06T11:19:32;32.30;;;14.00;;
71080;SDS011;58740;50.672;18.690;2024-03-06T11:26:01;26.40;;;11.20;;
71080;SDS011;58740;50.672;18.690;2024-03-06T11:28:36;30.90;;;14.50;;
71080;SDS011;58740;50.672;18.690;2024-03-06T11:31:11;23.70;;;12.00;;
71080;SDS011;58740;50.672;18.690;2024-03-06T11:33:52;29.60;;;13.30;;
71080;SDS011;58740;50.672;18.690;2024-03-06T11:36:27;30.10;;;14.70;;
71080;SDS011;58740;50.672;18.690;2024-03-06T11:39:01;29.70;;;16.00;;
71080;SDS011;58740;50.672;18.690;2024-03-06T11:41:49;32.40;;;16.60;;
71080;SDS011;58740;50.672;18.690;2024-03-06T11:44:23;38.40;;;18.70;;
71080;SDS011;58740;50.672;18.690;2024-03-06T11:47:01;27.60;;;12.50;;
71080;SDS011;58740;50.672;18.690;2024-03-06T11:49:35;34.80;;;17.30;;
71080;SDS011;58740;50.672;18.690;2024-03-06T11:52:09;35.20;;;16.80;;
71080;SDS011;58740;50.672;18.690;2024-03-06T11:54:41;33.90;;;18.40;;
71080;SDS011;58740;50.672;18.690;2024-03-06T11:57:14;29.70;;;14.60;;
71080;SDS011;58740;50.672;18.690;2024-03-06T11:59:50;35.10;;;18.10;;
71080;SDS011;58740;50.672;18.690;2024-03-06T12:02:25;34.90;;;17.40;;
71080;SDS011;58740;50.672;18.690;2024-03-06T12:05:01;30.60;;;13.40;;
71080;SDS011;58740;50.672;18.690;2024-03-06T12:07:46;41.50;;;19.30;;
71080;SDS011;58740;50.672;18.690;2024-03-06T12:10:20;41.30;;;19.90;;
71080;SDS011;58740;50.672;18.690;2024-03-06T12:12:52;45.20;;;22.70;;
71080;SDS011;58740;50.672;18.690;2024-03-06T12:15:25;30.30;;;16.60;;
71080;SDS011;58740;50.672;18.690;2024-03-06T12:17:57;33.60;;;15.80;;
71080;SDS011;58740;50.672;18.690;2024-03-06T12:20:30;41.90;;;18.80;;
71080;SDS011;58740;50.672;18.690;2024-03-06T12:23:03;36.60;;;17.50;;
71080;SDS011;58740;50.672;18.690;2024-03-06T12:25:35;35.90;;;17.20;;
71080;SDS011;58740;50.672;18.690;2024-03-06T12:28:09;46.00;;;22.10;;
71080;SDS011;58740;50.672;18.690;2024-03-06T12:30:43;47.80;;;22.00;;
71080;SDS011;58740;50.672;18.690;2024-03-06T12:33:18;38.00;;;16.50;;
71080;SDS011;58740;50.672;18.690;2024-03-06T12:36:04;51.30;;;23.90;;
71080;SDS011;58740;50.672;18.690;2024-03-06T12:38:40;34.90;;;18.20;;
71080;SDS011;58740;50.672;18.690;2024-03-06T12:41:13;30.90;;;14.90;;
71080;SDS011;58740;50.672;18.690;2024-03-06T12:43:45;47.60;;;22.40;;
71080;SDS011;58740;50.672;18.690;2024-03-06T12:46:18;44.60;;;21.80;;
71080;SDS011;58740;50.672;18.690;2024-03-06T12:48:51;36.30;;;17.60;;
71080;SDS011;58740;50.672;18.690;2024-03-06T12:51:23;46.00;;;23.10;;
71080;SDS011;58740;50.672;18.690;2024-03-06T12:53:56;41.10;;;19.90;;
71080;SDS011;58740;50.672;18.690;2024-03-06T12:56:30;37.10;;;17.20;;
71080;SDS011;58740;50.672;18.690;2024-03-06T12:59:03;42.60;;;21.30;;
71080;SDS011;58740;50.672;18.690;2024-03-06T13:01:35;38.70;;;20.50;;
71080;SDS011;58740;50.672;18.690;2024-03-06T13:04:07;52.50;;;25.20;;
71080;SDS011;58740;50.672;18.690;2024-03-06T13:06:41;37.40;;;18.20;;
71080;SDS011;58740;50.672;18.690;2024-03-06T13:09:14;40.00;;;20.50;;
71080;SDS011;58740;50.672;18.690;2024-03-06T13:11:47;39.20;;;18.50;;
71080;SDS011;58740;50.672;18.690;2024-03-06T13:14:19;45.50;;;21.00;;
71080;SDS011;58740;50.672;18.690;2024-03-06T13:16:52;55.00;;;24.70;;
71080;SDS011;58740;50.672;18.690;2024-03-06T13:19:25;41.10;;;21.00;;
71080;SDS011;58740;50.672;18.690;2024-03-06T13:21:58;52.90;;;23.30;;
71080;SDS011;58740;50.672;18.690;2024-03-06T13:24:34;46.60;;;23.00;;
71080;SDS011;58740;50.672;18.690;2024-03-06T13:27:12;56.40;;;26.20;;
71080;SDS011;58740;50.672;18.690;2024-03-06T13:29:45;57.70;;;24.70;;
71080;SDS011;58740;50.672;18.690;2024-03-06T13:32:17;39.70;;;19.20;;
71080;SDS011;58740;50.672;18.690;2024-03-06T13:34:50;45.50;;;21.80;;
71080;SDS011;58740;50.672;18.690;2024-03-06T13:37:22;48.10;;;22.60;;
71080;SDS011;58740;50.672;18.690;2024-03-06T13:39:55;52.30;;;24.90;;
71080;SDS011;58740;50.672;18.690;2024-03-06T13:42:30;58.40;;;24.50;;
71080;SDS011;58740;50.672;18.690;2024-03-06T13:45:03;54.00;;;25.70;;
71080;SDS011;58740;50.672;18.690;2024-03-06T13:47:42;54.80;;;25.20;;
71080;SDS011;58740;50.672;18.690;2024-03-06T13:50:17;49.40;;;22.30;;
71080;SDS011;58740;50.672;18.690;2024-03-06T13:52:51;55.30;;;24.90;;
71080;SDS011;58740;50.672;18.690;2024-03-06T13:55:23;46.10;;;23.50;;
71080;SDS011;58740;50.672;18.690;2024-03-06T13:57:58;40.50;;;19.30;;
71080;SDS011;58740;50.672;18.690;2024-03-06T14:00:33;57.70;;;26.80;;
71080;SDS011;58740;50.672;18.690;2024-03-06T14:03:07;61.60;;;29.00;;
71080;SDS011;58740;50.672;18.690;2024-03-06T14:05:42;57.30;;;27.10;;
71080;SDS011;58740;50.672;18.690;2024-03-06T14:08:15;56.60;;;25.10;;
71080;SDS011;58740;50.672;18.690;2024-03-06T14:10:51;61.20;;;30.40;;
71080;SDS011;58740;50.672;18.690;2024-03-06T14:13:24;59.50;;;27.70;;
71080;SDS011;58740;50.672;18.690;2024-03-06T14:16:00;52.10;;;24.30;;
71080;SDS011;58740;50.672;18.690;2024-03-06T14:18:33;43.60;;;20.70;;
71080;SDS011;58740;50.672;18.690;2024-03-06T14:21:06;46.80;;;19.90;;
71080;SDS011;58740;50.672;18.690;2024-03-06T14:23:40;45.70;;;20.90;;
71080;SDS011;58740;50.672;18.690;2024-03-06T14:26:13;53.50;;;24.40;;
71080;SDS011;58740;50.672;18.690;2024-03-06T14:28:47;57.40;;;25.60;;
71080;SDS011;58740;50.672;18.690;2024-03-06T14:31:25;56.20;;;24.90;;
71080;SDS011;58740;50.672;18.690;2024-03-06T14:33:58;52.10;;;24.70;;
71080;SDS011;58740;50.672;18.690;2024-03-06T14:36:35;54.30;;;24.20;;
71080;SDS011;58740;50.672;18.690;2024-03-06T14:39:10;51.90;;;22.00;;
71080;SDS011;58740;50.672;18.690;2024-03-06T14:41:55;59.10;;;26.80;;
71080;SDS011;58740;50.672;18.690;2024-03-06T14:44:27;65.30;;;25.80;;
71080;SDS011;58740;50.672;18.690;2024-03-06T14:47:00;56.40;;;26.80;;
71080;SDS011;58740;50.672;18.690;2024-03-06T14:49:32;48.90;;;23.40;;
71080;SDS011;58740;50.672;18.690;2024-03-06T14:52:05;59.80;;;26.30;;
71080;SDS011;58740;50.672;18.690;2024-03-06T14:54:38;51.20;;;23.90;;
71080;SDS011;58740;50.672;18.690;2024-03-06T14:57:13;47.00;;;22.70;;